createdAt,value
2022-12-31T00:00:08.197Z,98334.25
2022-12-31T00:02:35.205Z,98340.59
2022-12-31T00:05:02.172Z,98342.69
2022-12-31T00:07:28.719Z,98339.56
2022-12-31T00:09:55.220Z,98341.13
2022-12-31T00:12:21.808Z,98322.38
2022-12-31T00:14:48.356Z,98331.09
2022-12-31T00:17:14.942Z,98327.13
2022-12-31T00:19:41.481Z,98329.78
2022-12-31T00:22:07.991Z,98334.00
2022-12-31T00:24:35.932Z,98341.13
2022-12-31T00:27:02.539Z,98340.09
2022-12-31T00:29:29.091Z,98341.66
2022-12-31T00:31:55.654Z,98344.59
2022-12-31T00:34:22.325Z,98336.91
2022-12-31T00:36:48.883Z,98334.28
2022-12-31T00:39:15.461Z,98346.69
2022-12-31T00:41:44.040Z,98349.06
2022-12-31T00:44:14.440Z,98341.16
2022-12-31T00:49:07.026Z,98358.28
2022-12-31T00:51:33.739Z,98347.19
2022-12-31T00:54:00.416Z,98337.94
2022-12-31T00:56:29.652Z,98339.25
2022-12-31T00:58:56.565Z,98323.41
2022-12-31T01:01:29.342Z,98328.69
2022-12-31T01:04:00.864Z,98319.41
2022-12-31T01:06:27.599Z,98326.28
2022-12-31T01:08:55.622Z,98318.09
2022-12-31T01:11:23.543Z,98315.44
2022-12-31T01:13:56.110Z,98315.16
2022-12-31T01:16:28.564Z,98309.09
2022-12-31T01:18:55.388Z,98306.19
2022-12-31T01:21:22.513Z,98316.47
2022-12-31T01:23:49.334Z,98313.56
2022-12-31T01:26:16.881Z,98314.09
2022-12-31T01:28:43.406Z,98311.72
2022-12-31T01:31:13.681Z,98306.94
2022-12-31T01:33:41.410Z,98296.09
2022-12-31T01:36:11.931Z,98300.84
2022-12-31T01:38:39.484Z,98307.19
2022-12-31T01:41:06.644Z,98305.31
2022-12-31T01:43:47.390Z,98306.13
2022-12-31T01:46:27.170Z,98323.28
2022-12-31T01:48:57.736Z,98325.63
2022-12-31T01:51:28.260Z,98316.41
2022-12-31T01:53:55.143Z,98316.13
2022-12-31T01:56:23.131Z,98320.34
2022-12-31T01:58:52.459Z,98311.38
2022-12-31T02:01:27.139Z,98298.97
2022-12-31T02:03:54.199Z,98301.31
2022-12-31T02:06:29.067Z,98317.44
2022-12-31T02:08:57.890Z,98316.88
2022-12-31T02:11:35.328Z,98320.31
2022-12-31T02:14:33.816Z,98329.03
2022-12-31T02:17:09.456Z,98321.09
2022-12-31T02:20:02.374Z,98318.47
2022-12-31T02:22:47.844Z,98317.41
2022-12-31T02:25:51.982Z,98313.69
2022-12-31T02:28:18.507Z,98318.97
2022-12-31T02:30:50.247Z,98327.19
2022-12-31T02:33:41.078Z,98322.38
2022-12-31T02:36:17.163Z,98327.13
2022-12-31T02:38:47.565Z,98316.84
2022-12-31T02:41:36.699Z,98325.28
2022-12-31T02:44:24.299Z,98328.69
2022-12-31T02:46:55.443Z,98322.38
2022-12-31T02:49:55.475Z,98322.09
2022-12-31T02:52:50.864Z,98331.88
2022-12-31T02:55:45.182Z,98339.25
2022-12-31T02:58:16.710Z,98346.88
2022-12-31T03:01:13.039Z,98350.31
2022-12-31T03:03:40.339Z,98353.47
2022-12-31T03:06:08.997Z,98340.25
2022-12-31T03:08:55.935Z,98358.19
2022-12-31T03:11:41.166Z,98358.72
2022-12-31T03:14:07.708Z,98352.09
2022-12-31T03:16:35.055Z,98353.91
2022-12-31T03:19:20.363Z,98366.59
2022-12-31T03:22:05.320Z,98356.81
2022-12-31T03:24:50.115Z,98357.34
2022-12-31T03:27:16.581Z,98348.34
2022-12-31T03:29:43.091Z,98348.06
2022-12-31T03:32:09.650Z,98347.25
2022-12-31T03:34:36.148Z,98348.06
2022-12-31T03:37:02.653Z,98349.66
2022-12-31T03:39:29.247Z,98349.66
2022-12-31T03:41:55.732Z,98347.50
2022-12-31T03:44:22.275Z,98340.34
2022-12-31T03:46:48.831Z,98330.59
2022-12-31T03:49:15.367Z,98328.75
2022-12-31T03:51:41.880Z,98318.16
2022-12-31T03:54:08.432Z,98308.38
2022-12-31T03:56:34.933Z,98314.47
2022-12-31T03:59:01.518Z,98333.75
2022-12-31T04:01:28.084Z,98322.38
2022-12-31T04:03:54.632Z,98325.03
2022-12-31T04:06:21.178Z,98304.66
2022-12-31T04:08:47.691Z,98314.69
2022-12-31T04:11:20.511Z,98302.56
2022-12-31T04:13:47.453Z,98309.41
2022-12-31T04:16:13.959Z,98317.34
2022-12-31T04:18:40.488Z,98308.84
2022-12-31T04:21:07.247Z,98307.25
2022-12-31T04:23:33.759Z,98313.06
2022-12-31T04:26:00.323Z,98309.66
2022-12-31T04:28:26.975Z,98290.06
2022-12-31T04:30:53.499Z,98304.84
2022-12-31T04:33:19.993Z,98315.94
2022-12-31T04:35:46.512Z,98319.38
2022-12-31T04:38:13.062Z,98313.78
2022-12-31T04:41:15.227Z,98313.00
2022-12-31T04:43:42.109Z,98313.78
2022-12-31T04:46:08.666Z,98317.75
2022-12-31T04:48:36.243Z,98318.53
2022-12-31T04:51:03.724Z,98319.59
2022-12-31T04:53:30.352Z,98321.97
2022-12-31T04:55:56.871Z,98303.47
2022-12-31T04:58:23.375Z,98308.75
2022-12-31T05:00:52.690Z,98293.97
2022-12-31T05:03:19.376Z,98294.75
2022-12-31T05:05:45.889Z,98295.28
2022-12-31T05:08:13.127Z,98296.31
2022-12-31T05:10:48.549Z,98300.03
2022-12-31T05:13:16.134Z,98289.97
2022-12-31T05:15:42.979Z,98289.16
2022-12-31T05:18:09.536Z,98289.16
2022-12-31T05:20:36.113Z,98288.91
2022-12-31T05:23:02.784Z,98283.63
2022-12-31T05:25:29.412Z,98290.75
2022-12-31T05:27:56.111Z,98293.13
2022-12-31T05:30:23.421Z,98278.34
2022-12-31T05:32:50.263Z,98288.63
2022-12-31T05:35:17.421Z,98288.63
2022-12-31T05:37:44.543Z,98297.63
2022-12-31T05:40:12.628Z,98293.91
2022-12-31T05:42:39.606Z,98301.56
2022-12-31T05:45:06.823Z,98308.44
2022-12-31T05:47:33.428Z,98310.28
2022-12-31T05:49:59.982Z,98310.78
2022-12-31T05:52:26.520Z,98301.28
2022-12-31T05:54:53.384Z,98276.41
2022-12-31T05:57:19.942Z,98270.56
2022-12-31T05:59:46.454Z,98283.31
2022-12-31T06:02:13.037Z,98310.50
2022-12-31T06:04:39.636Z,98290.94
2022-12-31T06:07:06.144Z,98320.78
2022-12-31T06:09:32.716Z,98331.38
2022-12-31T06:11:59.190Z,98316.28
2022-12-31T06:14:25.788Z,98310.47
2022-12-31T06:16:52.336Z,98294.88
2022-12-31T06:19:18.824Z,98299.59
2022-12-31T06:21:45.373Z,98306.47
2022-12-31T06:24:12.378Z,98286.38
2022-12-31T06:26:38.909Z,98260.72
2022-12-31T06:29:05.469Z,98263.34
2022-12-31T06:31:32.490Z,98265.75
2022-12-31T06:33:59.134Z,98269.94
2022-12-31T06:36:27.032Z,98262.03
2022-12-31T06:38:53.738Z,98267.84
2022-12-31T06:41:20.233Z,98262.53
2022-12-31T06:43:46.783Z,98263.31
2022-12-31T06:46:16.138Z,98268.31
2022-12-31T06:48:44.795Z,98283.09
2022-12-31T06:51:17.923Z,98292.91
2022-12-31T06:53:46.170Z,98277.03
2022-12-31T06:56:31.285Z,98272.53
2022-12-31T06:59:00.315Z,98282.84
2022-12-31T07:01:48.784Z,98287.06
2022-12-31T07:04:57.888Z,98275.41
2022-12-31T07:07:37.038Z,98285.19
2022-12-31T07:10:31.511Z,98299.97
2022-12-31T07:13:42.109Z,98297.34
2022-12-31T07:16:30.480Z,98280.69
2022-12-31T07:19:11.908Z,98284.63
2022-12-31T07:21:41.285Z,98291.78
2022-12-31T07:24:09.654Z,98294.44
2022-12-31T07:26:57.037Z,98300.22
2022-12-31T07:29:35.874Z,98304.72
2022-12-31T07:32:18.201Z,98312.38
2022-12-31T07:35:11.088Z,98329.03
2022-12-31T07:37:59.434Z,98321.88
2022-12-31T07:40:43.962Z,98321.09
2022-12-31T07:43:33.224Z,98337.47
2022-12-31T07:46:11.865Z,98349.91
2022-12-31T07:48:38.737Z,98368.94
2022-12-31T07:51:05.607Z,98362.84
2022-12-31T07:53:32.356Z,98351.22
2022-12-31T07:56:01.623Z,98359.94
2022-12-31T07:58:39.972Z,98350.13
2022-12-31T08:01:15.875Z,98314.19
2022-12-31T08:03:54.304Z,98352.78
2022-12-31T08:06:42.705Z,98380.31
2022-12-31T08:09:09.188Z,98384.50
2022-12-31T08:11:44.325Z,98386.38
2022-12-31T08:14:13.225Z,98392.44
2022-12-31T08:16:40.081Z,98392.44
2022-12-31T08:19:06.888Z,98396.94
2022-12-31T08:21:56.134Z,98391.38
2022-12-31T08:24:36.082Z,98389.81
2022-12-31T08:27:11.942Z,98393.53
2022-12-31T08:29:53.618Z,98411.50
2022-12-31T08:32:26.225Z,98417.09
2022-12-31T08:35:03.464Z,98423.44
2022-12-31T08:37:42.050Z,98426.34
2022-12-31T08:40:39.255Z,98427.94
2022-12-31T08:43:15.811Z,98448.28
2022-12-31T08:45:49.934Z,98453.88
2022-12-31T08:48:25.824Z,98443.00
2022-12-31T08:50:53.608Z,98452.53
2022-12-31T08:53:20.559Z,98459.66
2022-12-31T08:55:49.484Z,98471.06
2022-12-31T08:58:34.683Z,98473.41
2022-12-31T09:01:02.294Z,98475.53
2022-12-31T09:03:36.668Z,98487.41
2022-12-31T09:06:13.721Z,98483.69
2022-12-31T09:09:06.297Z,98467.84
2022-12-31T09:11:58.292Z,98471.25
2022-12-31T09:14:43.211Z,98457.78
2022-12-31T09:17:24.808Z,98474.44
2022-12-31T09:19:51.570Z,98475.22
2022-12-31T09:22:18.353Z,98478.66
2022-12-31T09:24:45.107Z,98484.72
2022-12-31T09:27:27.593Z,98499.53
2022-12-31T09:30:03.967Z,98510.91
2022-12-31T09:32:42.784Z,98501.13
2022-12-31T09:35:20.333Z,98522.00
2022-12-31T09:37:50.462Z,98518.56
2022-12-31T09:40:43.012Z,98523.31
2022-12-31T09:43:09.492Z,98530.94
2022-12-31T09:45:48.277Z,98531.47
2022-12-31T09:48:36.007Z,98524.03
2022-12-31T09:51:25.879Z,98522.19
2022-12-31T09:53:55.374Z,98513.97
2022-12-31T09:56:44.136Z,98518.97
2022-12-31T09:59:11.049Z,98524.03
2022-12-31T10:01:57.237Z,98516.09
2022-12-31T10:04:40.118Z,98524.50
2022-12-31T10:07:36.961Z,98531.38
2022-12-31T10:10:09.374Z,98531.91
2022-12-31T10:12:54.144Z,98539.56
2022-12-31T10:15:35.999Z,98543.50
2022-12-31T10:18:34.406Z,98528.13
2022-12-31T10:21:44.255Z,98540.31
2022-12-31T10:24:36.400Z,98540.31
2022-12-31T10:27:06.703Z,98541.88
2022-12-31T10:29:47.335Z,98551.13
2022-12-31T10:32:31.150Z,98554.28
2022-12-31T10:35:26.104Z,98536.53
2022-12-31T10:38:16.118Z,98549.50
2022-12-31T10:40:59.448Z,98545.78
2022-12-31T10:43:50.540Z,98555.81
2022-12-31T10:46:32.582Z,98550.25
2022-12-31T10:49:23.412Z,98555.25
2022-12-31T10:52:01.995Z,98555.00
2022-12-31T10:54:47.141Z,98554.69
2022-12-31T10:57:41.643Z,98565.03
2022-12-31T11:00:15.432Z,98558.13
2022-12-31T11:03:09.168Z,98562.09
2022-12-31T11:06:00.171Z,98544.09
2022-12-31T11:08:58.745Z,98557.53
2022-12-31T11:11:43.100Z,98552.22
2022-12-31T11:14:47.604Z,98562.56
2022-12-31T11:17:23.360Z,98547.19
2022-12-31T11:20:14.912Z,98534.75
2022-12-31T11:22:47.532Z,98538.44
2022-12-31T11:25:32.163Z,98547.97
2022-12-31T11:28:32.490Z,98538.16
2022-12-31T11:31:40.695Z,98529.91
2022-12-31T11:34:37.960Z,98521.41
2022-12-31T11:37:42.362Z,98523.78
2022-12-31T11:40:36.835Z,98527.72
2022-12-31T11:43:23.703Z,98523.75
2022-12-31T11:45:59.473Z,98529.53
2022-12-31T11:48:49.835Z,98529.53
2022-12-31T11:51:19.320Z,98536.13
2022-12-31T11:54:21.427Z,98530.56
2022-12-31T11:56:59.350Z,98532.16
2022-12-31T11:59:25.863Z,98539.50
2022-12-31T12:01:57.770Z,98539.25
2022-12-31T12:04:24.577Z,98530.22
2022-12-31T12:06:52.329Z,98529.16
2022-12-31T12:09:31.159Z,98519.06
2022-12-31T12:12:00.832Z,98518.28
2022-12-31T12:14:32.923Z,98513.47
2022-12-31T12:17:04.878Z,98513.19
2022-12-31T12:19:34.677Z,98508.69
2022-12-31T12:22:19.121Z,98504.97
2022-12-31T12:25:03.703Z,98502.03
2022-12-31T12:27:33.649Z,98503.91
2022-12-31T12:30:21.408Z,98512.38
2022-12-31T12:33:15.837Z,98506.78
2022-12-31T12:35:42.365Z,98498.53
2022-12-31T12:38:21.434Z,98496.97
2022-12-31T12:40:57.317Z,98504.66
2022-12-31T12:43:30.300Z,98503.81
2022-12-31T12:46:01.521Z,98500.13
2022-12-31T12:48:37.128Z,98504.84
2022-12-31T12:51:24.160Z,98505.66
2022-12-31T12:54:04.674Z,98506.69
2022-12-31T12:56:42.266Z,98498.19
2022-12-31T12:59:47.634Z,98497.13
2022-12-31T13:02:42.049Z,98488.13
2022-12-31T13:05:29.337Z,98485.94
2022-12-31T13:08:17.088Z,98484.09
2022-12-31T13:11:26.404Z,98472.44
2022-12-31T13:14:11.680Z,98479.00
2022-12-31T13:16:54.002Z,98479.00
2022-12-31T13:19:35.490Z,98477.94
2022-12-31T13:22:05.143Z,98462.03
2022-12-31T13:24:40.457Z,98452.75
2022-12-31T13:27:27.183Z,98451.94
2022-12-31T13:29:57.968Z,98455.59
2022-12-31T13:32:42.355Z,98451.66
2022-12-31T13:35:37.975Z,98466.22
2022-12-31T13:38:09.956Z,98455.59
2022-12-31T13:40:48.344Z,98456.09
2022-12-31T13:43:56.877Z,98454.25
2022-12-31T13:46:38.374Z,98463.00
2022-12-31T13:49:32.219Z,98452.09
2022-12-31T13:52:20.311Z,98460.03
2022-12-31T13:55:05.298Z,98456.59
2022-12-31T13:57:56.461Z,98443.88
2022-12-31T14:00:24.384Z,98456.31
2022-12-31T14:03:09.322Z,98441.72
2022-12-31T14:05:48.968Z,98447.00
2022-12-31T14:08:16.043Z,98450.44
2022-12-31T14:10:48.465Z,98439.84
2022-12-31T14:13:21.057Z,98440.63
2022-12-31T14:16:26.098Z,98434.75
2022-12-31T14:19:05.277Z,98424.72
2022-12-31T14:21:44.422Z,98424.47
2022-12-31T14:24:23.106Z,98422.28
2022-12-31T14:26:56.330Z,98415.13
2022-12-31T14:29:45.903Z,98414.06
2022-12-31T14:32:35.938Z,98410.34
2022-12-31T14:35:23.991Z,98407.69
2022-12-31T14:37:50.984Z,98419.06
2022-12-31T14:40:39.774Z,98415.34
2022-12-31T14:43:47.558Z,98416.13
2022-12-31T14:46:35.504Z,98404.47
2022-12-31T14:49:33.543Z,98409.78
2022-12-31T14:52:19.545Z,98415.06
2022-12-31T14:54:46.102Z,98410.25
2022-12-31T14:57:25.110Z,98411.03
2022-12-31T14:59:57.906Z,98404.47
2022-12-31T15:02:34.139Z,98417.13
2022-12-31T15:05:13.013Z,98415.00
2022-12-31T15:07:48.488Z,98417.94
2022-12-31T15:10:36.034Z,98416.84
2022-12-31T15:13:11.562Z,98413.41
2022-12-31T15:15:41.107Z,98417.63
2022-12-31T15:18:16.953Z,98420.28
2022-12-31T15:21:20.681Z,98424.81
2022-12-31T15:23:47.539Z,98418.41
2022-12-31T15:26:26.086Z,98427.16
2022-12-31T15:29:03.784Z,98427.47
2022-12-31T15:31:33.270Z,98424.50
2022-12-31T15:34:07.996Z,98429.81
2022-12-31T15:36:53.136Z,98434.03
2022-12-31T15:39:37.591Z,98434.84
2022-12-31T15:42:37.157Z,98440.16
2022-12-31T15:44:59.097Z,98446.22
2022-12-31T15:47:34.549Z,98447.78
2022-12-31T15:50:07.960Z,98441.72
2022-12-31T15:52:39.554Z,98442.50
2022-12-31T15:55:07.017Z,98447.78
2022-12-31T15:57:38.941Z,98445.16
2022-12-31T16:00:18.183Z,98446.72
2022-12-31T16:02:45.646Z,98437.97
2022-12-31T16:05:26.975Z,98428.47
2022-12-31T16:07:58.704Z,98436.09
2022-12-31T16:10:31.181Z,98427.66
2022-12-31T16:12:59.572Z,98435.03
2022-12-31T16:15:30.425Z,98431.09
2022-12-31T16:18:09.150Z,98433.47
2022-12-31T16:20:42.540Z,98430.81
2022-12-31T16:23:21.864Z,98431.59
2022-12-31T16:25:49.693Z,98435.84
2022-12-31T16:28:19.362Z,98422.84
2022-12-31T16:30:56.098Z,98427.06
2022-12-31T16:33:22.829Z,98419.94
2022-12-31T16:35:56.832Z,98425.72
2022-12-31T16:38:30.790Z,98424.41
2022-12-31T16:41:07.604Z,98418.06
2022-12-31T16:43:43.246Z,98414.91
2022-12-31T16:46:26.787Z,98413.03
2022-12-31T16:48:55.306Z,98412.25
2022-12-31T16:51:25.723Z,98410.38
2022-12-31T16:53:52.540Z,98402.44
2022-12-31T16:56:31.109Z,98406.94
2022-12-31T16:59:04.748Z,98406.16
2022-12-31T17:01:34.199Z,98397.72
2022-12-31T17:04:04.906Z,98400.06
2022-12-31T17:06:33.540Z,98402.72
2022-12-31T17:09:20.712Z,98404.59
2022-12-31T17:11:57.157Z,98404.88
2022-12-31T17:14:26.404Z,98407.53
2022-12-31T17:17:08.075Z,98401.44
2022-12-31T17:19:42.684Z,98402.50
2022-12-31T17:22:34.390Z,98400.16
2022-12-31T17:25:07.440Z,98400.16
2022-12-31T17:27:36.338Z,98403.59
2022-12-31T17:30:39.872Z,98397.50
2022-12-31T17:33:09.160Z,98404.69
2022-12-31T17:35:41.980Z,98401.81
2022-12-31T17:38:17.738Z,98409.16
2022-12-31T17:40:51.303Z,98408.13
2022-12-31T17:43:20.491Z,98404.69
2022-12-31T17:45:50.133Z,98402.81
2022-12-31T17:48:18.823Z,98405.47
2022-12-31T17:50:50.929Z,98405.47
2022-12-31T17:53:18.366Z,98410.78
2022-12-31T17:55:47.152Z,98413.41
2022-12-31T17:58:53.448Z,98415.00
2022-12-31T18:01:23.839Z,98410.78
2022-12-31T18:03:51.300Z,98405.94
2022-12-31T18:06:19.616Z,98412.81
2022-12-31T18:08:46.533Z,98417.06
2022-12-31T18:11:19.805Z,98410.47
2022-12-31T18:13:47.041Z,98412.03
2022-12-31T18:16:14.410Z,98414.13
2022-12-31T18:18:42.379Z,98414.41
2022-12-31T18:21:25.306Z,98407.25
2022-12-31T18:23:51.944Z,98421.28
2022-12-31T18:26:21.112Z,98424.72
2022-12-31T18:28:49.126Z,98422.84
2022-12-31T18:31:28.405Z,98415.97
2022-12-31T18:33:58.086Z,98423.16
2022-12-31T18:36:29.081Z,98423.94
2022-12-31T18:38:56.104Z,98431.91
2022-12-31T18:41:26.952Z,98431.91
2022-12-31T18:43:54.251Z,98431.91
2022-12-31T18:46:23.444Z,98431.09
2022-12-31T18:48:49.932Z,98440.63
2022-12-31T18:51:26.472Z,98436.41
2022-12-31T18:53:57.847Z,98433.47
2022-12-31T18:56:25.239Z,98433.19
2022-12-31T18:58:51.981Z,98424.72
2022-12-31T19:01:26.083Z,98435.03
2022-12-31T19:03:54.416Z,98425.50
2022-12-31T19:06:21.084Z,98430.81
2022-12-31T19:08:47.666Z,98432.69
2022-12-31T19:11:14.974Z,98422.06
2022-12-31T19:13:41.655Z,98422.84
2022-12-31T19:16:09.755Z,98428.94
2022-12-31T19:18:36.809Z,98431.59
2022-12-31T19:21:04.653Z,98437.19
2022-12-31T19:23:31.184Z,98436.41
2022-12-31T19:25:57.711Z,98437.19
2022-12-31T19:28:26.621Z,98441.97
2022-12-31T19:30:53.692Z,98450.75
2022-12-31T19:33:20.668Z,98449.66
2022-12-31T19:35:47.547Z,98457.88
2022-12-31T19:38:21.406Z,98457.88
2022-12-31T19:40:48.905Z,98461.63
2022-12-31T19:43:18.278Z,98463.19
2022-12-31T19:45:45.703Z,98460.84
2022-12-31T19:48:14.841Z,98465.34
2022-12-31T19:50:44.921Z,98471.75
2022-12-31T19:53:14.632Z,98461.13
2022-12-31T19:55:41.896Z,98479.41
2022-12-31T19:58:08.719Z,98483.91
2022-12-31T20:00:35.424Z,98484.69
2022-12-31T20:03:02.125Z,98479.41
2022-12-31T20:05:28.816Z,98483.91
2022-12-31T20:07:55.374Z,98496.88
2022-12-31T20:10:21.898Z,98492.66
2022-12-31T20:12:48.407Z,98498.75
2022-12-31T20:15:14.972Z,98501.38
2022-12-31T20:17:41.493Z,98501.91
2022-12-31T20:20:08.559Z,98505.59
2022-12-31T20:22:35.076Z,98516.72
2022-12-31T20:25:01.738Z,98517.50
2022-12-31T20:27:28.388Z,98514.88
2022-12-31T20:29:54.967Z,98534.22
2022-12-31T20:32:21.583Z,98535.00
2022-12-31T20:34:48.128Z,98542.94
2022-12-31T20:37:14.778Z,98542.94
2022-12-31T20:39:42.669Z,98549.03
2022-12-31T20:42:09.418Z,98563.09
2022-12-31T20:44:35.938Z,98556.19
2022-12-31T20:47:02.547Z,98555.41
2022-12-31T20:50:00.691Z,98558.06
2022-12-31T20:52:15.579Z,98561.00
2022-12-31T20:54:42.170Z,98566.59
2022-12-31T20:57:08.689Z,98564.53
2022-12-31T20:59:35.351Z,98566.38
2022-12-31T21:04:48.382Z,98553.19
2022-12-31T21:07:15.069Z,98560.63
2022-12-31T21:09:41.589Z,98567.84
2022-12-31T21:12:29.476Z,98574.00
2022-12-31T21:14:56.319Z,98575.66
2022-12-31T21:17:22.837Z,98578.84
2022-12-31T21:19:49.448Z,98585.78
2022-12-31T21:22:15.969Z,98597.75
2022-12-31T21:24:42.485Z,98590.06
2022-12-31T21:27:09.011Z,98599.88
2022-12-31T21:29:41.909Z,98606.25
2022-12-31T21:32:17.514Z,98616.06
2022-12-31T21:34:44.027Z,98638.06
2022-12-31T21:37:10.541Z,98647.09
2022-12-31T21:39:37.045Z,98658.72
2022-12-31T21:42:04.045Z,98664.63
2022-12-31T21:44:30.615Z,98661.16
2022-12-31T21:47:39.809Z,98645.06
2022-12-31T21:50:08.160Z,98652.19
2022-12-31T21:52:35.216Z,98658.28
2022-12-31T21:55:22.716Z,98657.78
2022-12-31T22:00:56.085Z,98670.78
2022-12-31T22:03:26.966Z,98675.28
2022-12-31T22:05:58.571Z,98678.78
2022-12-31T22:08:25.254Z,98676.41
2022-12-31T22:10:53.118Z,98665.00
2022-12-31T22:13:20.058Z,98679.63
2022-12-31T22:15:48.467Z,98668.00
2022-12-31T22:18:16.537Z,98655.81
2022-12-31T22:20:43.376Z,98660.91
2022-12-31T22:23:10.008Z,98670.19
2022-12-31T22:25:38.435Z,98670.19
2022-12-31T22:30:53.714Z,98678.16
2022-12-31T22:33:20.371Z,98683.22
2022-12-31T22:36:09.907Z,98680.06
2022-12-31T22:38:36.485Z,98689.84
2022-12-31T22:41:07.633Z,98692.00
2022-12-31T22:43:36.507Z,98698.34
2022-12-31T22:46:12.376Z,98697.06
2022-12-31T22:48:39.735Z,98708.16
2022-12-31T22:51:07.167Z,98708.41
2022-12-31T22:53:33.776Z,98704.47
2022-12-31T22:56:00.781Z,98699.44
2022-12-31T22:58:27.614Z,98693.09
2022-12-31T23:00:54.347Z,98691.50
2022-12-31T23:03:21.003Z,98687.81
2022-12-31T23:05:52.227Z,98694.16
2022-12-31T23:08:23.229Z,98696.53
2022-12-31T23:11:05.516Z,98704.19
2022-12-31T23:13:57.149Z,98699.44
2022-12-31T23:16:44.947Z,98703.69
2022-12-31T23:19:30.802Z,98710.03
2022-12-31T23:22:16.685Z,98702.09
2022-12-31T23:24:43.537Z,98709.25
2022-12-31T23:27:10.760Z,98706.34
2022-12-31T23:29:46.128Z,98714.53
2022-12-31T23:32:14.068Z,98707.97
2022-12-31T23:34:40.577Z,98723.06
2022-12-31T23:37:07.115Z,98703.72
2022-12-31T23:39:33.691Z,98692.34
2022-12-31T23:42:00.465Z,98707.16
2022-12-31T23:44:28.291Z,98716.94
2022-12-31T23:46:55.489Z,98707.44
2022-12-31T23:49:22.087Z,98689.19
2022-12-31T23:51:48.645Z,98705.84
2022-12-31T23:54:15.895Z,98706.63
2022-12-31T23:56:42.515Z,98717.22
2022-12-31T23:59:10.962Z,98705.06
